sensor_id;sensor_type;location;lat;lon;timestamp;pressure;altitude;pressure_sealevel;temperature;humidity
39083;BME280;24834;44.444;26.098;2023-05-20T00:02:00;100863.66;;;20.02;
39083;BME280;24834;44.444;26.098;2023-05-20T00:08:04;100864.34;;;20.12;
39083;BME280;24834;44.444;26.098;2023-05-20T00:14:15;100873.78;;;19.97;
39083;BME280;24834;44.444;26.098;2023-05-20T00:20:18;100868.00;;;19.83;
39083;BME280;24834;44.444;26.098;2023-05-20T00:26:21;100854.09;;;19.77;
39083;BME280;24834;44.444;26.098;2023-05-20T00:32:28;100853.75;;;19.67;
39083;BME280;24834;44.444;26.098;2023-05-20T00:38:32;100848.53;;;19.58;
39083;BME280;24834;44.444;26.098;2023-05-20T00:44:36;100841.44;;;19.41;
39083;BME280;24834;44.444;26.098;2023-05-20T00:50:44;100846.34;;;19.39;
39083;BME280;24834;44.444;26.098;2023-05-20T00:56:48;100833.53;;;19.33;
39083;BME280;24834;44.444;26.098;2023-05-20T01:02:55;100828.66;;;19.35;
39083;BME280;24834;44.444;26.098;2023-05-20T01:09:08;100826.09;;;19.26;
39083;BME280;24834;44.444;26.098;2023-05-20T01:15:23;100835.69;;;19.19;
39083;BME280;24834;44.444;26.098;2023-05-20T01:21:29;100837.88;;;19.05;
39083;BME280;24834;44.444;26.098;2023-05-20T01:27:35;100836.34;;;19.04;
39083;BME280;24834;44.444;26.098;2023-05-20T01:33:41;100832.13;;;19.03;
39083;BME280;24834;44.444;26.098;2023-05-20T01:39:55;100826.09;;;19.06;
39083;BME280;24834;44.444;26.098;2023-05-20T01:45:58;100833.47;;;19.09;
39083;BME280;24834;44.444;26.098;2023-05-20T01:52:03;100835.31;;;18.96;
39083;BME280;24834;44.444;26.098;2023-05-20T01:58:08;100836.22;;;18.79;
39083;BME280;24834;44.444;26.098;2023-05-20T02:04:12;100837.31;;;18.78;
39083;BME280;24834;44.444;26.098;2023-05-20T02:10:16;100833.56;;;18.79;
39083;BME280;24834;44.444;26.098;2023-05-20T02:16:23;100840.56;;;18.63;
39083;BME280;24834;44.444;26.098;2023-05-20T02:22:26;100844.53;;;18.57;
39083;BME280;24834;44.444;26.098;2023-05-20T02:28:33;100840.66;;;18.55;
39083;BME280;24834;44.444;26.098;2023-05-20T02:34:40;100844.53;;;18.57;
39083;BME280;24834;44.444;26.098;2023-05-20T02:40:44;100834.25;;;18.47;
39083;BME280;24834;44.444;26.098;2023-05-20T02:46:52;100845.31;;;18.58;
39083;BME280;24834;44.444;26.098;2023-05-20T02:52:57;100842.44;;;18.63;
39083;BME280;24834;44.444;26.098;2023-05-20T02:59:02;100849.66;;;18.62;
39083;BME280;24834;44.444;26.098;2023-05-20T03:05:11;100860.56;;;18.69;
39083;BME280;24834;44.444;26.098;2023-05-20T03:11:18;100863.75;;;18.63;
39083;BME280;24834;44.444;26.098;2023-05-20T03:17:26;100869.69;;;18.68;
39083;BME280;24834;44.444;26.098;2023-05-20T03:23:34;100877.81;;;18.72;
39083;BME280;24834;44.444;26.098;2023-05-20T03:29:42;100885.88;;;18.84;
39083;BME280;24834;44.444;26.098;2023-05-20T03:35:45;100895.25;;;18.90;
39083;BME280;24834;44.444;26.098;2023-05-20T03:41:50;100886.78;;;18.88;
39083;BME280;24834;44.444;26.098;2023-05-20T03:47:59;100884.53;;;18.78;
39083;BME280;24834;44.444;26.098;2023-05-20T03:54:06;100892.28;;;18.92;
39083;BME280;24834;44.444;26.098;2023-05-20T04:00:15;100905.38;;;18.97;
39083;BME280;24834;44.444;26.098;2023-05-20T04:06:27;100911.69;;;19.13;
39083;BME280;24834;44.444;26.098;2023-05-20T04:12:33;100913.75;;;19.28;
39083;BME280;24834;44.444;26.098;2023-05-20T04:18:40;100922.66;;;19.32;
39083;BME280;24834;44.444;26.098;2023-05-20T04:24:58;100915.81;;;19.43;
